sensor_id;sensor_type;location;lat;lon;timestamp;P1;durP1;ratioP1;P2;durP2;ratioP2
36383;SDS011;22418;51.210;6.976;2023-05-02T00:00:34;24.27;;;14.27;;
36383;SDS011;22418;51.210;6.976;2023-05-02T00:03:05;24.63;;;15.05;;
36383;SDS011;22418;51.210;6.976;2023-05-02T00:05:37;28.67;;;17.13;;
36383;SDS011;22418;51.210;6.976;2023-05-02T00:08:07;27.43;;;16.83;;
36383;SDS011;22418;51.210;6.976;2023-05-02T00:10:38;24.73;;;17.23;;
36383;SDS011;22418;51.210;6.976;2023-05-02T00:13:08;24.90;;;16.57;;
36383;SDS011;22418;51.210;6.976;2023-05-02T00:15:39;27.00;;;16.20;;
36383;SDS011;22418;51.210;6.976;2023-05-02T00:18:10;24.60;;;16.00;;
36383;SDS011;22418;51.210;6.976;2023-05-02T00:20:40;26.60;;;17.40;;
36383;SDS011;22418;51.210;6.976;2023-05-02T00:23:11;26.20;;;16.67;;
36383;SDS011;22418;51.210;6.976;2023-05-02T00:25:45;27.77;;;16.97;;
36383;SDS011;22418;51.210;6.976;2023-05-02T00:28:15;22.50;;;16.48;;
36383;SDS011;22418;51.210;6.976;2023-05-02T00:30:46;28.58;;;17.38;;
36383;SDS011;22418;51.210;6.976;2023-05-02T00:33:17;25.57;;;15.73;;
36383;SDS011;22418;51.210;6.976;2023-05-02T00:35:47;24.30;;;16.47;;
36383;SDS011;22418;51.210;6.976;2023-05-02T00:38:18;25.70;;;16.30;;
36383;SDS011;22418;51.210;6.976;2023-05-02T00:40:49;24.53;;;15.87;;
36383;SDS011;22418;51.210;6.976;2023-05-02T00:43:21;27.20;;;17.70;;
36383;SDS011;22418;51.210;6.976;2023-05-02T00:45:51;25.47;;;17.50;;
36383;SDS011;22418;51.210;6.976;2023-05-02T00:48:22;29.23;;;19.20;;
36383;SDS011;22418;51.210;6.976;2023-05-02T00:50:54;26.98;;;17.60;;
36383;SDS011;22418;51.210;6.976;2023-05-02T00:53:26;34.72;;;20.38;;
36383;SDS011;22418;51.210;6.976;2023-05-02T00:55:57;37.93;;;22.10;;
36383;SDS011;22418;51.210;6.976;2023-05-02T00:58:28;37.17;;;19.80;;
36383;SDS011;22418;51.210;6.976;2023-05-02T01:03:45;39.60;;;24.63;;
36383;SDS011;22418;51.210;6.976;2023-05-02T01:09:25;45.55;;;28.60;;
36383;SDS011;22418;51.210;6.976;2023-05-02T01:12:11;44.28;;;28.00;;
36383;SDS011;22418;51.210;6.976;2023-05-02T01:14:45;44.10;;;26.65;;
36383;SDS011;22418;51.210;6.976;2023-05-02T01:17:25;51.72;;;29.52;;
36383;SDS011;22418;51.210;6.976;2023-05-02T01:20:01;50.67;;;30.13;;
36383;SDS011;22418;51.210;6.976;2023-05-02T01:22:34;50.95;;;31.45;;
36383;SDS011;22418;51.210;6.976;2023-05-02T01:30:41;52.63;;;29.73;;
36383;SDS011;22418;51.210;6.976;2023-05-02T01:33:13;49.45;;;29.08;;
36383;SDS011;22418;51.210;6.976;2023-05-02T01:35:46;53.45;;;31.17;;
36383;SDS011;22418;51.210;6.976;2023-05-02T01:38:20;62.55;;;34.22;;
36383;SDS011;22418;51.210;6.976;2023-05-02T01:40:54;57.90;;;33.33;;
36383;SDS011;22418;51.210;6.976;2023-05-02T01:43:32;57.53;;;34.20;;
36383;SDS011;22418;51.210;6.976;2023-05-02T01:46:04;61.88;;;35.83;;
36383;SDS011;22418;51.210;6.976;2023-05-02T01:48:38;62.08;;;35.30;;
36383;SDS011;22418;51.210;6.976;2023-05-02T01:51:14;63.65;;;34.67;;
36383;SDS011;22418;51.210;6.976;2023-05-02T01:53:47;60.75;;;35.83;;
36383;SDS011;22418;51.210;6.976;2023-05-02T01:56:19;65.95;;;36.72;;
36383;SDS011;22418;51.210;6.976;2023-05-02T01:58:54;69.75;;;38.85;;
36383;SDS011;22418;51.210;6.976;2023-05-02T02:06:29;73.13;;;39.92;;
36383;SDS011;22418;51.210;6.976;2023-05-02T02:09:00;75.50;;;41.73;;
36383;SDS011;22418;51.210;6.976;2023-05-02T02:11:36;85.15;;;45.22;;
36383;SDS011;22418;51.210;6.976;2023-05-02T02:14:39;83.35;;;43.92;;
36383;SDS011;22418;51.210;6.976;2023-05-02T02:17:21;87.65;;;43.42;;
36383;SDS011;22418;51.210;6.976;2023-05-02T02:19:55;76.10;;;42.08;;
36383;SDS011;22418;51.210;6.976;2023-05-02T02:22:30;80.28;;;41.38;;
36383;SDS011;22418;51.210;6.976;2023-05-02T02:25:06;78.78;;;42.25;;
36383;SDS011;22418;51.210;6.976;2023-05-02T02:27:40;77.38;;;42.10;;
36383;SDS011;22418;51.210;6.976;2023-05-02T02:30:11;71.65;;;39.08;;
36383;SDS011;22418;51.210;6.976;2023-05-02T02:32:42;67.97;;;37.75;;
36383;SDS011;22418;51.210;6.976;2023-05-02T02:35:12;74.40;;;39.63;;
36383;SDS011;22418;51.210;6.976;2023-05-02T02:37:47;69.37;;;38.20;;
36383;SDS011;22418;51.210;6.976;2023-05-02T02:40:44;70.30;;;36.63;;
36383;SDS011;22418;51.210;6.976;2023-05-02T02:51:12;72.68;;;37.47;;
36383;SDS011;22418;51.210;6.976;2023-05-02T02:56:21;62.73;;;35.40;;
36383;SDS011;22418;51.210;6.976;2023-05-02T02:59:13;61.58;;;34.25;;
36383;SDS011;22418;51.210;6.976;2023-05-02T03:01:53;67.80;;;33.75;;
36383;SDS011;22418;51.210;6.976;2023-05-02T03:04:32;61.67;;;32.83;;
36383;SDS011;22418;51.210;6.976;2023-05-02T03:07:04;60.42;;;32.92;;
36383;SDS011;22418;51.210;6.976;2023-05-02T03:09:44;59.47;;;32.42;;
36383;SDS011;22418;51.210;6.976;2023-05-02T03:12:16;61.45;;;31.83;;
36383;SDS011;22418;51.210;6.976;2023-05-02T03:14:50;60.72;;;31.35;;
36383;SDS011;22418;51.210;6.976;2023-05-02T03:17:20;59.00;;;30.57;;
36383;SDS011;22418;51.210;6.976;2023-05-02T03:19:51;53.23;;;29.10;;
36383;SDS011;22418;51.210;6.976;2023-05-02T03:22:21;57.40;;;28.87;;
36383;SDS011;22418;51.210;6.976;2023-05-02T03:24:52;57.17;;;30.47;;
36383;SDS011;22418;51.210;6.976;2023-05-02T03:27:22;56.67;;;30.17;;
36383;SDS011;22418;51.210;6.976;2023-05-02T03:29:53;49.37;;;26.70;;
36383;SDS011;22418;51.210;6.976;2023-05-02T03:32:23;50.37;;;26.80;;
36383;SDS011;22418;51.210;6.976;2023-05-02T03:34:55;55.78;;;28.48;;
36383;SDS011;22418;51.210;6.976;2023-05-02T03:37:27;54.38;;;26.30;;
36383;SDS011;22418;51.210;6.976;2023-05-02T03:39:58;51.87;;;26.40;;
36383;SDS011;22418;51.210;6.976;2023-05-02T03:42:28;54.03;;;26.87;;
36383;SDS011;22418;51.210;6.976;2023-05-02T03:44:59;49.20;;;25.67;;
36383;SDS011;22418;51.210;6.976;2023-05-02T03:47:29;48.23;;;26.00;;
36383;SDS011;22418;51.210;6.976;2023-05-02T03:50:00;53.40;;;25.60;;
36383;SDS011;22418;51.210;6.976;2023-05-02T03:52:35;46.70;;;24.33;;
36383;SDS011;22418;51.210;6.976;2023-05-02T03:55:09;47.90;;;25.02;;
36383;SDS011;22418;51.210;6.976;2023-05-02T03:57:40;48.20;;;24.27;;
36383;SDS011;22418;51.210;6.976;2023-05-02T04:00:11;47.30;;;24.07;;
36383;SDS011;22418;51.210;6.976;2023-05-02T04:02:42;47.08;;;24.77;;
36383;SDS011;22418;51.210;6.976;2023-05-02T04:05:12;47.57;;;23.83;;
36383;SDS011;22418;51.210;6.976;2023-05-02T04:07:43;45.87;;;24.00;;
36383;SDS011;22418;51.210;6.976;2023-05-02T04:10:13;47.10;;;24.63;;
36383;SDS011;22418;51.210;6.976;2023-05-02T04:12:53;45.78;;;23.83;;
36383;SDS011;22418;51.210;6.976;2023-05-02T04:15:23;42.30;;;23.45;;
36383;SDS011;22418;51.210;6.976;2023-05-02T04:17:54;48.37;;;23.70;;
36383;SDS011;22418;51.210;6.976;2023-05-02T04:20:30;45.50;;;23.40;;
36383;SDS011;22418;51.210;6.976;2023-05-02T04:23:00;51.42;;;25.27;;
36383;SDS011;22418;51.210;6.976;2023-05-02T04:25:31;44.10;;;24.00;;
36383;SDS011;22418;51.210;6.976;2023-05-02T04:28:02;50.77;;;25.73;;
36383;SDS011;22418;51.210;6.976;2023-05-02T04:30:32;51.87;;;26.20;;
36383;SDS011;22418;51.210;6.976;2023-05-02T04:33:03;48.50;;;25.80;;
36383;SDS011;22418;51.210;6.976;2023-05-02T04:35:33;49.87;;;26.10;;
36383;SDS011;22418;51.210;6.976;2023-05-02T04:38:04;49.60;;;26.63;;
36383;SDS011;22418;51.210;6.976;2023-05-02T04:40:34;47.73;;;25.80;;
36383;SDS011;22418;51.210;6.976;2023-05-02T04:43:06;47.88;;;25.40;;
36383;SDS011;22418;51.210;6.976;2023-05-02T04:45:36;51.27;;;27.40;;
36383;SDS011;22418;51.210;6.976;2023-05-02T04:48:07;45.67;;;24.70;;
36383;SDS011;22418;51.210;6.976;2023-05-02T04:50:37;48.50;;;24.87;;
36383;SDS011;22418;51.210;6.976;2023-05-02T04:53:08;43.43;;;24.17;;
36383;SDS011;22418;51.210;6.976;2023-05-02T04:55:38;40.93;;;21.70;;
36383;SDS011;22418;51.210;6.976;2023-05-02T04:58:09;39.00;;;21.90;;
36383;SDS011;22418;51.210;6.976;2023-05-02T05:00:40;37.33;;;20.03;;
36383;SDS011;22418;51.210;6.976;2023-05-02T05:03:10;40.43;;;20.73;;
36383;SDS011;22418;51.210;6.976;2023-05-02T05:05:41;36.10;;;19.47;;
36383;SDS011;22418;51.210;6.976;2023-05-02T05:08:11;33.07;;;18.97;;
36383;SDS011;22418;51.210;6.976;2023-05-02T05:10:42;34.63;;;18.13;;
36383;SDS011;22418;51.210;6.976;2023-05-02T05:13:12;33.43;;;18.57;;
36383;SDS011;22418;51.210;6.976;2023-05-02T05:15:46;35.70;;;18.53;;
36383;SDS011;22418;51.210;6.976;2023-05-02T05:18:16;32.92;;;17.23;;
36383;SDS011;22418;51.210;6.976;2023-05-02T05:20:47;35.30;;;16.57;;
36383;SDS011;22418;51.210;6.976;2023-05-02T05:23:17;32.93;;;17.53;;
36383;SDS011;22418;51.210;6.976;2023-05-02T05:25:48;30.90;;;16.87;;
36383;SDS011;22418;51.210;6.976;2023-05-02T05:28:18;28.73;;;15.63;;
36383;SDS011;22418;51.210;6.976;2023-05-02T05:30:49;33.00;;;16.67;;
36383;SDS011;22418;51.210;6.976;2023-05-02T05:33:20;30.67;;;16.20;;
36383;SDS011;22418;51.210;6.976;2023-05-02T05:35:51;29.10;;;15.57;;
36383;SDS011;22418;51.210;6.976;2023-05-02T05:38:22;35.17;;;17.42;;
36383;SDS011;22418;51.210;6.976;2023-05-02T05:40:52;30.47;;;16.60;;
36383;SDS011;22418;51.210;6.976;2023-05-02T05:43:23;31.53;;;16.80;;
36383;SDS011;22418;51.210;6.976;2023-05-02T05:45:55;29.88;;;16.58;;
36383;SDS011;22418;51.210;6.976;2023-05-02T05:48:26;35.27;;;18.00;;
36383;SDS011;22418;51.210;6.976;2023-05-02T05:50:56;35.33;;;18.40;;
36383;SDS011;22418;51.210;6.976;2023-05-02T05:53:27;32.13;;;18.30;;
36383;SDS011;22418;51.210;6.976;2023-05-02T05:55:57;34.57;;;18.87;;
36383;SDS011;22418;51.210;6.976;2023-05-02T05:58:28;39.73;;;19.73;;
36383;SDS011;22418;51.210;6.976;2023-05-02T06:00:58;33.87;;;19.00;;
36383;SDS011;22418;51.210;6.976;2023-05-02T06:03:29;40.47;;;21.37;;
36383;SDS011;22418;51.210;6.976;2023-05-02T06:06:00;36.00;;;20.27;;
36383;SDS011;22418;51.210;6.976;2023-05-02T06:08:31;37.73;;;21.20;;
36383;SDS011;22418;51.210;6.976;2023-05-02T06:11:01;41.20;;;22.17;;
36383;SDS011;22418;51.210;6.976;2023-05-02T06:13:32;37.60;;;22.08;;
36383;SDS011;22418;51.210;6.976;2023-05-02T06:16:03;36.60;;;21.53;;
36383;SDS011;22418;51.210;6.976;2023-05-02T06:18:34;40.67;;;22.35;;
36383;SDS011;22418;51.210;6.976;2023-05-02T06:21:05;31.63;;;21.03;;
36383;SDS011;22418;51.210;6.976;2023-05-02T06:23:35;35.13;;;20.70;;
36383;SDS011;22418;51.210;6.976;2023-05-02T06:26:06;34.63;;;19.97;;
36383;SDS011;22418;51.210;6.976;2023-05-02T06:28:36;31.90;;;20.07;;
36383;SDS011;22418;51.210;6.976;2023-05-02T06:31:07;26.67;;;17.20;;
36383;SDS011;22418;51.210;6.976;2023-05-02T06:33:38;22.60;;;13.00;;
36383;SDS011;22418;51.210;6.976;2023-05-02T06:36:08;19.23;;;9.00;;
36383;SDS011;22418;51.210;6.976;2023-05-02T06:38:47;16.92;;;8.60;;
36383;SDS011;22418;51.210;6.976;2023-05-02T06:41:17;16.02;;;7.50;;
36383;SDS011;22418;51.210;6.976;2023-05-02T06:43:49;16.80;;;8.35;;
36383;SDS011;22418;51.210;6.976;2023-05-02T06:46:20;19.23;;;7.43;;
36383;SDS011;22418;51.210;6.976;2023-05-02T06:48:50;13.90;;;6.60;;
36383;SDS011;22418;51.210;6.976;2023-05-02T06:51:21;12.73;;;6.47;;
36383;SDS011;22418;51.210;6.976;2023-05-02T06:53:51;14.23;;;6.07;;
36383;SDS011;22418;51.210;6.976;2023-05-02T06:56:22;13.67;;;5.23;;
36383;SDS011;22418;51.210;6.976;2023-05-02T06:58:57;13.95;;;5.40;;
36383;SDS011;22418;51.210;6.976;2023-05-02T07:01:27;11.95;;;4.63;;
36383;SDS011;22418;51.210;6.976;2023-05-02T07:03:59;12.70;;;5.20;;
36383;SDS011;22418;51.210;6.976;2023-05-02T07:06:30;16.27;;;5.93;;
36383;SDS011;22418;51.210;6.976;2023-05-02T07:09:01;10.27;;;4.18;;
36383;SDS011;22418;51.210;6.976;2023-05-02T07:11:32;14.67;;;4.43;;
36383;SDS011;22418;51.210;6.976;2023-05-02T07:14:03;10.48;;;4.75;;
36383;SDS011;22418;51.210;6.976;2023-05-02T07:16:33;8.30;;;4.17;;
36383;SDS011;22418;51.210;6.976;2023-05-02T07:19:04;11.13;;;3.92;;
36383;SDS011;22418;51.210;6.976;2023-05-02T07:21:35;12.80;;;3.97;;
36383;SDS011;22418;51.210;6.976;2023-05-02T07:24:06;9.73;;;4.23;;
36383;SDS011;22418;51.210;6.976;2023-05-02T07:26:36;10.77;;;3.97;;
36383;SDS011;22418;51.210;6.976;2023-05-02T07:29:07;11.60;;;3.67;;
36383;SDS011;22418;51.210;6.976;2023-05-02T07:31:38;10.93;;;3.38;;
36383;SDS011;22418;51.210;6.976;2023-05-02T07:34:09;10.70;;;4.33;;
36383;SDS011;22418;51.210;6.976;2023-05-02T07:36:39;13.30;;;4.20;;
36383;SDS011;22418;51.210;6.976;2023-05-02T07:39:10;14.13;;;4.90;;
36383;SDS011;22418;51.210;6.976;2023-05-02T07:41:40;8.13;;;3.50;;
36383;SDS011;22418;51.210;6.976;2023-05-02T07:44:11;14.77;;;3.63;;
36383;SDS011;22418;51.210;6.976;2023-05-02T07:46:42;9.77;;;3.77;;
36383;SDS011;22418;51.210;6.976;2023-05-02T07:49:12;8.67;;;3.70;;
36383;SDS011;22418;51.210;6.976;2023-05-02T07:51:43;11.23;;;3.77;;
36383;SDS011;22418;51.210;6.976;2023-05-02T07:54:17;12.32;;;4.50;;
36383;SDS011;22418;51.210;6.976;2023-05-02T07:56:49;10.05;;;4.93;;
36383;SDS011;22418;51.210;6.976;2023-05-02T07:59:19;11.83;;;6.77;;
36383;SDS011;22418;51.210;6.976;2023-05-02T08:01:50;18.80;;;10.10;;
36383;SDS011;22418;51.210;6.976;2023-05-02T08:04:21;20.00;;;12.37;;
36383;SDS011;22418;51.210;6.976;2023-05-02T08:06:51;22.50;;;11.13;;
36383;SDS011;22418;51.210;6.976;2023-05-02T08:09:22;15.97;;;7.00;;
36383;SDS011;22418;51.210;6.976;2023-05-02T08:11:52;8.60;;;4.43;;
36383;SDS011;22418;51.210;6.976;2023-05-02T08:14:23;13.67;;;4.00;;
36383;SDS011;22418;51.210;6.976;2023-05-02T08:16:54;7.90;;;3.40;;
36383;SDS011;22418;51.210;6.976;2023-05-02T08:19:24;15.23;;;3.43;;
36383;SDS011;22418;51.210;6.976;2023-05-02T08:21:55;9.45;;;3.58;;
36383;SDS011;22418;51.210;6.976;2023-05-02T08:24:25;9.67;;;3.10;;
36383;SDS011;22418;51.210;6.976;2023-05-02T08:26:56;9.85;;;2.83;;
36383;SDS011;22418;51.210;6.976;2023-05-02T08:29:27;9.93;;;3.10;;
36383;SDS011;22418;51.210;6.976;2023-05-02T08:31:59;9.25;;;3.33;;
36383;SDS011;22418;51.210;6.976;2023-05-02T08:34:29;11.20;;;3.87;;
36383;SDS011;22418;51.210;6.976;2023-05-02T08:37:06;8.63;;;3.67;;
36383;SDS011;22418;51.210;6.976;2023-05-02T08:39:41;11.23;;;3.17;;
36383;SDS011;22418;51.210;6.976;2023-05-02T08:42:11;6.37;;;3.23;;
36383;SDS011;22418;51.210;6.976;2023-05-02T08:44:42;11.33;;;2.70;;
36383;SDS011;22418;51.210;6.976;2023-05-02T08:47:12;9.50;;;2.67;;
36383;SDS011;22418;51.210;6.976;2023-05-02T08:49:44;7.78;;;2.67;;
36383;SDS011;22418;51.210;6.976;2023-05-02T08:52:16;5.90;;;2.30;;
36383;SDS011;22418;51.210;6.976;2023-05-02T08:54:49;10.98;;;3.10;;
36383;SDS011;22418;51.210;6.976;2023-05-02T08:57:20;6.93;;;1.90;;
36383;SDS011;22418;51.210;6.976;2023-05-02T08:59:51;6.47;;;2.00;;
36383;SDS011;22418;51.210;6.976;2023-05-02T09:05:07;9.80;;;2.17;;
36383;SDS011;22418;51.210;6.976;2023-05-02T09:07:44;7.15;;;2.10;;
36383;SDS011;22418;51.210;6.976;2023-05-02T09:10:16;8.93;;;2.13;;
36383;SDS011;22418;51.210;6.976;2023-05-02T09:12:46;7.50;;;2.07;;
36383;SDS011;22418;51.210;6.976;2023-05-02T09:15:18;9.87;;;2.40;;
36383;SDS011;22418;51.210;6.976;2023-05-02T09:17:49;10.40;;;2.38;;
36383;SDS011;22418;51.210;6.976;2023-05-02T09:20:20;7.63;;;2.43;;
36383;SDS011;22418;51.210;6.976;2023-05-02T09:22:51;6.60;;;2.23;;
36383;SDS011;22418;51.210;6.976;2023-05-02T09:25:21;10.77;;;4.32;;
36383;SDS011;22418;51.210;6.976;2023-05-02T09:27:53;9.03;;;2.80;;
36383;SDS011;22418;51.210;6.976;2023-05-02T09:30:25;9.30;;;2.28;;
36383;SDS011;22418;51.210;6.976;2023-05-02T09:32:55;9.05;;;2.80;;
36383;SDS011;22418;51.210;6.976;2023-05-02T09:35:26;12.83;;;2.90;;
36383;SDS011;22418;51.210;6.976;2023-05-02T09:37:57;12.03;;;2.57;;
36383;SDS011;22418;51.210;6.976;2023-05-02T09:40:27;6.80;;;2.22;;
36383;SDS011;22418;51.210;6.976;2023-05-02T09:42:59;4.82;;;2.03;;
36383;SDS011;22418;51.210;6.976;2023-05-02T09:45:54;7.50;;;2.10;;
36383;SDS011;22418;51.210;6.976;2023-05-02T09:48:27;7.78;;;2.20;;
36383;SDS011;22418;51.210;6.976;2023-05-02T09:50:58;7.60;;;2.20;;
36383;SDS011;22418;51.210;6.976;2023-05-02T09:53:30;7.95;;;2.38;;
36383;SDS011;22418;51.210;6.976;2023-05-02T09:56:03;8.53;;;2.40;;
36383;SDS011;22418;51.210;6.976;2023-05-02T09:58:34;6.97;;;2.90;;
36383;SDS011;22418;51.210;6.976;2023-05-02T10:01:05;9.87;;;3.20;;
36383;SDS011;22418;51.210;6.976;2023-05-02T10:03:36;9.60;;;3.40;;
36383;SDS011;22418;51.210;6.976;2023-05-02T10:06:10;11.55;;;3.65;;
36383;SDS011;22418;51.210;6.976;2023-05-02T10:11:14;11.82;;;3.95;;
36383;SDS011;22418;51.210;6.976;2023-05-02T10:13:45;16.80;;;7.27;;
36383;SDS011;22418;51.210;6.976;2023-05-02T10:16:15;19.60;;;8.85;;
36383;SDS011;22418;51.210;6.976;2023-05-02T10:21:32;17.92;;;8.52;;
36383;SDS011;22418;51.210;6.976;2023-05-02T10:24:04;11.85;;;7.15;;
36383;SDS011;22418;51.210;6.976;2023-05-02T10:26:35;11.93;;;4.28;;
36383;SDS011;22418;51.210;6.976;2023-05-02T10:29:06;17.10;;;4.57;;
36383;SDS011;22418;51.210;6.976;2023-05-02T10:31:37;11.38;;;4.00;;
36383;SDS011;22418;51.210;6.976;2023-05-02T10:34:10;9.98;;;3.42;;
36383;SDS011;22418;51.210;6.976;2023-05-02T10:36:41;12.10;;;3.65;;
36383;SDS011;22418;51.210;6.976;2023-05-02T10:39:11;12.23;;;3.83;;
36383;SDS011;22418;51.210;6.976;2023-05-02T10:41:42;14.80;;;5.67;;
36383;SDS011;22418;51.210;6.976;2023-05-02T10:44:13;15.27;;;5.45;;
36383;SDS011;22418;51.210;6.976;2023-05-02T10:46:44;7.65;;;4.97;;
36383;SDS011;22418;51.210;6.976;2023-05-02T10:49:15;12.47;;;5.17;;
36383;SDS011;22418;51.210;6.976;2023-05-02T10:51:46;11.20;;;4.72;;
36383;SDS011;22418;51.210;6.976;2023-05-02T10:59:38;13.45;;;4.80;;
36383;SDS011;22418;51.210;6.976;2023-05-02T11:04:57;14.02;;;4.32;;
36383;SDS011;22418;51.210;6.976;2023-05-02T11:07:33;16.30;;;4.00;;
36383;SDS011;22418;51.210;6.976;2023-05-02T11:12:48;8.55;;;3.78;;
36383;SDS011;22418;51.210;6.976;2023-05-02T11:20:31;8.73;;;3.38;;
36383;SDS011;22418;51.210;6.976;2023-05-02T11:25:45;11.32;;;4.25;;
36383;SDS011;22418;51.210;6.976;2023-05-02T11:31:52;10.48;;;3.63;;
36383;SDS011;22418;51.210;6.976;2023-05-02T11:34:00;14.73;;;4.18;;
36383;SDS011;22418;51.210;6.976;2023-05-02T11:36:32;19.90;;;9.75;;
36383;SDS011;22418;51.210;6.976;2023-05-02T11:39:17;18.60;;;7.88;;
36383;SDS011;22418;51.210;6.976;2023-05-02T11:41:48;18.55;;;6.40;;
36383;SDS011;22418;51.210;6.976;2023-05-02T11:44:20;15.82;;;4.85;;
36383;SDS011;22418;51.210;6.976;2023-05-02T11:46:50;16.83;;;5.33;;
36383;SDS011;22418;51.210;6.976;2023-05-02T11:49:22;17.58;;;4.75;;
36383;SDS011;22418;51.210;6.976;2023-05-02T11:51:52;10.63;;;4.60;;
36383;SDS011;22418;51.210;6.976;2023-05-02T11:54:23;16.17;;;5.77;;
36383;SDS011;22418;51.210;6.976;2023-05-02T11:56:54;16.07;;;4.90;;
36383;SDS011;22418;51.210;6.976;2023-05-02T11:59:24;16.13;;;5.60;;
36383;SDS011;22418;51.210;6.976;2023-05-02T12:01:55;11.03;;;4.73;;
36383;SDS011;22418;51.210;6.976;2023-05-02T12:04:27;14.93;;;5.57;;
36383;SDS011;22418;51.210;6.976;2023-05-02T12:06:57;14.43;;;5.57;;
36383;SDS011;22418;51.210;6.976;2023-05-02T12:09:28;17.40;;;5.80;;
36383;SDS011;22418;51.210;6.976;2023-05-02T12:11:58;13.53;;;5.20;;
36383;SDS011;22418;51.210;6.976;2023-05-02T12:14:29;14.50;;;5.38;;
36383;SDS011;22418;51.210;6.976;2023-05-02T12:17:02;16.52;;;5.63;;
36383;SDS011;22418;51.210;6.976;2023-05-02T12:19:33;13.02;;;5.00;;
36383;SDS011;22418;51.210;6.976;2023-05-02T12:22:06;15.88;;;6.50;;
36383;SDS011;22418;51.210;6.976;2023-05-02T12:24:36;17.00;;;6.88;;
36383;SDS011;22418;51.210;6.976;2023-05-02T12:27:11;16.70;;;7.25;;
36383;SDS011;22418;51.210;6.976;2023-05-02T12:29:43;16.95;;;7.60;;
36383;SDS011;22418;51.210;6.976;2023-05-02T12:32:25;20.50;;;7.85;;
36383;SDS011;22418;51.210;6.976;2023-05-02T12:34:58;16.27;;;7.95;;
36383;SDS011;22418;51.210;6.976;2023-05-02T12:37:29;18.90;;;8.73;;
36383;SDS011;22418;51.210;6.976;2023-05-02T12:40:00;20.90;;;9.37;;
36383;SDS011;22418;51.210;6.976;2023-05-02T12:42:30;21.53;;;8.73;;
36383;SDS011;22418;51.210;6.976;2023-05-02T12:45:03;17.90;;;9.10;;
36383;SDS011;22418;51.210;6.976;2023-05-02T12:47:43;22.77;;;9.13;;
36383;SDS011;22418;51.210;6.976;2023-05-02T12:50:15;19.13;;;9.00;;
36383;SDS011;22418;51.210;6.976;2023-05-02T12:52:49;17.10;;;10.50;;
36383;SDS011;22418;51.210;6.976;2023-05-02T12:55:28;22.80;;;9.50;;
36383;SDS011;22418;51.210;6.976;2023-05-02T12:58:01;19.40;;;8.48;;
36383;SDS011;22418;51.210;6.976;2023-05-02T13:00:36;19.55;;;9.90;;
36383;SDS011;22418;51.210;6.976;2023-05-02T13:03:09;20.67;;;9.75;;
36383;SDS011;22418;51.210;6.976;2023-05-02T13:05:39;18.95;;;10.25;;
36383;SDS011;22418;51.210;6.976;2023-05-02T13:08:10;18.37;;;8.17;;
36383;SDS011;22418;51.210;6.976;2023-05-02T13:10:41;19.03;;;7.37;;
36383;SDS011;22418;51.210;6.976;2023-05-02T13:13:12;14.73;;;8.10;;
36383;SDS011;22418;51.210;6.976;2023-05-02T13:15:42;15.67;;;8.33;;
36383;SDS011;22418;51.210;6.976;2023-05-02T13:18:13;11.00;;;6.20;;
36383;SDS011;22418;51.210;6.976;2023-05-02T13:20:43;12.57;;;5.10;;
36383;SDS011;22418;51.210;6.976;2023-05-02T13:23:14;10.13;;;5.30;;
36383;SDS011;22418;51.210;6.976;2023-05-02T13:25:45;12.57;;;4.95;;
36383;SDS011;22418;51.210;6.976;2023-05-02T13:28:16;14.40;;;5.33;;
36383;SDS011;22418;51.210;6.976;2023-05-02T13:30:47;11.68;;;5.15;;
36383;SDS011;22418;51.210;6.976;2023-05-02T13:33:18;13.83;;;5.00;;
36383;SDS011;22418;51.210;6.976;2023-05-02T13:35:48;9.13;;;4.83;;
36383;SDS011;22418;51.210;6.976;2023-05-02T13:38:19;10.73;;;3.80;;
36383;SDS011;22418;51.210;6.976;2023-05-02T13:40:50;14.30;;;4.57;;
36383;SDS011;22418;51.210;6.976;2023-05-02T13:43:20;7.70;;;4.30;;
36383;SDS011;22418;51.210;6.976;2023-05-02T13:45:51;8.67;;;4.17;;
36383;SDS011;22418;51.210;6.976;2023-05-02T13:48:21;15.40;;;5.50;;
36383;SDS011;22418;51.210;6.976;2023-05-02T13:50:52;15.07;;;5.47;;
36383;SDS011;22418;51.210;6.976;2023-05-02T13:53:23;12.98;;;5.30;;
36383;SDS011;22418;51.210;6.976;2023-05-02T13:55:53;13.07;;;4.60;;
36383;SDS011;22418;51.210;6.976;2023-05-02T13:58:24;11.00;;;4.73;;
36383;SDS011;22418;51.210;6.976;2023-05-02T14:00:54;12.13;;;5.53;;
36383;SDS011;22418;51.210;6.976;2023-05-02T14:03:25;13.25;;;4.55;;
36383;SDS011;22418;51.210;6.976;2023-05-02T14:05:56;11.07;;;4.63;;
36383;SDS011;22418;51.210;6.976;2023-05-02T14:08:26;8.67;;;4.37;;
36383;SDS011;22418;51.210;6.976;2023-05-02T14:10:57;13.77;;;4.23;;
36383;SDS011;22418;51.210;6.976;2023-05-02T14:13:28;8.07;;;3.37;;
36383;SDS011;22418;51.210;6.976;2023-05-02T14:16:01;11.85;;;3.90;;
36383;SDS011;22418;51.210;6.976;2023-05-02T14:18:32;6.93;;;3.50;;
36383;SDS011;22418;51.210;6.976;2023-05-02T14:21:02;15.33;;;4.93;;
36383;SDS011;22418;51.210;6.976;2023-05-02T14:23:33;5.78;;;2.95;;
36383;SDS011;22418;51.210;6.976;2023-05-02T14:26:04;12.25;;;4.10;;
36383;SDS011;22418;51.210;6.976;2023-05-02T14:28:34;9.40;;;4.27;;
36383;SDS011;22418;51.210;6.976;2023-05-02T14:31:06;15.57;;;4.47;;
36383;SDS011;22418;51.210;6.976;2023-05-02T14:33:36;11.70;;;4.43;;
36383;SDS011;22418;51.210;6.976;2023-05-02T14:36:07;11.87;;;4.10;;
36383;SDS011;22418;51.210;6.976;2023-05-02T14:38:38;12.37;;;3.87;;
36383;SDS011;22418;51.210;6.976;2023-05-02T14:41:08;12.17;;;3.57;;
36383;SDS011;22418;51.210;6.976;2023-05-02T14:43:39;10.40;;;3.60;;
36383;SDS011;22418;51.210;6.976;2023-05-02T14:46:09;10.00;;;4.27;;
36383;SDS011;22418;51.210;6.976;2023-05-02T14:48:40;13.73;;;3.77;;
36383;SDS011;22418;51.210;6.976;2023-05-02T14:51:10;10.53;;;3.93;;
36383;SDS011;22418;51.210;6.976;2023-05-02T14:53:41;14.60;;;3.80;;
36383;SDS011;22418;51.210;6.976;2023-05-02T14:56:12;10.90;;;3.93;;
36383;SDS011;22418;51.210;6.976;2023-05-02T14:58:46;10.38;;;4.75;;
36383;SDS011;22418;51.210;6.976;2023-05-02T15:01:19;12.67;;;4.57;;
36383;SDS011;22418;51.210;6.976;2023-05-02T15:03:50;13.45;;;4.47;;
36383;SDS011;22418;51.210;6.976;2023-05-02T15:06:21;8.80;;;4.32;;
36383;SDS011;22418;51.210;6.976;2023-05-02T15:08:52;11.10;;;4.67;;
36383;SDS011;22418;51.210;6.976;2023-05-02T15:11:22;7.00;;;3.33;;
36383;SDS011;22418;51.210;6.976;2023-05-02T15:13:53;8.93;;;4.30;;
36383;SDS011;22418;51.210;6.976;2023-05-02T15:16:23;9.10;;;3.60;;
36383;SDS011;22418;51.210;6.976;2023-05-02T15:18:55;8.75;;;3.70;;
36383;SDS011;22418;51.210;6.976;2023-05-02T15:21:26;12.23;;;4.60;;
36383;SDS011;22418;51.210;6.976;2023-05-02T15:23:56;13.10;;;4.53;;
36383;SDS011;22418;51.210;6.976;2023-05-02T15:26:27;8.27;;;3.60;;
36383;SDS011;22418;51.210;6.976;2023-05-02T15:28:57;12.30;;;4.03;;
36383;SDS011;22418;51.210;6.976;2023-05-02T15:31:28;10.47;;;4.20;;
36383;SDS011;22418;51.210;6.976;2023-05-02T15:33:59;9.27;;;3.77;;
36383;SDS011;22418;51.210;6.976;2023-05-02T15:36:29;11.90;;;4.43;;
36383;SDS011;22418;51.210;6.976;2023-05-02T15:39:00;16.23;;;4.80;;
36383;SDS011;22418;51.210;6.976;2023-05-02T15:41:30;11.23;;;4.23;;
36383;SDS011;22418;51.210;6.976;2023-05-02T15:44:01;15.05;;;4.25;;
36383;SDS011;22418;51.210;6.976;2023-05-02T15:46:32;14.50;;;4.83;;
36383;SDS011;22418;51.210;6.976;2023-05-02T15:49:02;12.17;;;4.37;;
36383;SDS011;22418;51.210;6.976;2023-05-02T15:51:33;9.07;;;4.40;;
36383;SDS011;22418;51.210;6.976;2023-05-02T15:54:03;12.03;;;4.30;;